General Aviation Weather

Text Reports

Enter one or more of the following location identifiers separated by a space:

Zip Code, Four-Character ICAO or Three-Character IATA airport codes.

METAR - Aviation Routine Weather Report
K5H4 - Harvey, North Dakota
Updated at 8:15 AM GMT on August 20, 2014 (3:15 AM CDT):
METAR K5H4 200815Z AUTO 13005KT 10SM CLR 18/18 A2972 RMK AO2
TAF - Terminal Area Forecast
K5H4 - Harvey, North Dakota
Updated at 8:15 AM GMT on August 20, 2014 (3:15 AM CDT):
No TAF is currently available for this location.
Decoded:
No decoded TAF is available.
PIREP - Pilot Weather Report
K5H4 - Harvey, North Dakota
Updated at 8:15 AM GMT on August 20, 2014 (3:15 AM CDT):
No PIREP is currently available for this location.
AIRMET - Airmens Meteorological Information
K5H4 - Harvey, North Dakota
Updated at 8:15 AM GMT on August 20, 2014 (3:15 AM CDT):
No AIRMET is currently available for this location.
SIGMET - Significant Meteorological Information
K5H4 - Harvey, North Dakota
Updated at 8:15 AM GMT on August 20, 2014 (3:15 AM CDT):
No SIGMET is currently available for this location.
NOTAM - Notice to Airmen
K5H4 - Harvey, North Dakota
Updated at 8:15 AM GMT on August 20, 2014 (3:15 AM CDT):
No NOTAM is currently available for this location.
Forecast Area
K5H4 - Harvey, North Dakota
Updated at 8:15 AM GMT on August 20, 2014 (3:15 AM CDT):
No NOTAM is currently available for this location.
Aviation Weather Maps